createdAt,value
2023-04-16T00:00:38.930Z,16.48
2023-04-16T00:03:05.744Z,17.02
2023-04-16T00:05:32.543Z,16.50
2023-04-16T00:07:59.209Z,16.08
2023-04-16T00:10:25.861Z,16.98
2023-04-16T00:12:52.490Z,16.48
2023-04-16T00:15:19.122Z,16.25
2023-04-16T00:17:45.766Z,15.57
2023-04-16T00:20:12.531Z,16.42
2023-04-16T00:22:39.510Z,16.60
2023-04-16T00:25:06.380Z,15.80
2023-04-16T00:27:32.965Z,16.55
2023-04-16T00:29:59.618Z,16.88
2023-04-16T00:32:26.301Z,16.15
2023-04-16T00:34:52.937Z,15.70
2023-04-16T00:37:19.561Z,15.82
2023-04-16T00:39:46.151Z,16.33
2023-04-16T00:42:12.903Z,16.20
2023-04-16T00:44:39.561Z,15.88
2023-04-16T00:47:07.682Z,15.63
2023-04-16T00:49:34.777Z,16.05
2023-04-16T00:52:03.197Z,15.43
2023-04-16T00:54:31.670Z,15.63
2023-04-16T00:56:59.565Z,16.60
2023-04-16T00:59:26.927Z,15.82
2023-04-16T01:01:53.921Z,15.35
2023-04-16T01:04:21.454Z,15.02
2023-04-16T01:06:48.227Z,14.63
2023-04-16T01:09:15.068Z,15.23
2023-04-16T01:11:41.715Z,14.98
2023-04-16T01:14:08.353Z,14.23
2023-04-16T01:16:34.938Z,14.90
2023-04-16T01:19:01.663Z,14.63
2023-04-16T01:21:28.482Z,14.65
2023-04-16T01:23:55.142Z,13.95
2023-04-16T01:26:21.843Z,14.75
2023-04-16T01:28:48.521Z,14.88
2023-04-16T01:31:15.203Z,14.27
2023-04-16T01:33:51.399Z,14.57
2023-04-16T01:36:18.153Z,14.77
2023-04-16T01:38:48.586Z,13.70
2023-04-16T01:41:15.556Z,13.63
2023-04-16T01:43:42.552Z,14.25
2023-04-16T01:46:20.432Z,14.07
2023-04-16T01:48:48.385Z,13.90
2023-04-16T01:51:14.980Z,13.43
2023-04-16T01:53:41.592Z,13.73
2023-04-16T01:56:08.246Z,13.50
2023-04-16T01:58:35.599Z,14.18
2023-04-16T02:01:02.593Z,14.43
2023-04-16T02:03:29.557Z,13.80
2023-04-16T02:05:56.400Z,14.93
2023-04-16T02:08:23.512Z,13.82
2023-04-16T02:10:50.606Z,14.73
2023-04-16T02:13:17.466Z,14.45
2023-04-16T02:15:50.588Z,14.35
2023-04-16T02:18:23.822Z,13.93
2023-04-16T02:20:50.644Z,14.52
2023-04-16T02:23:18.006Z,14.20
2023-04-16T02:25:47.142Z,14.65
2023-04-16T02:28:16.475Z,14.57
2023-04-16T02:30:44.765Z,14.13
2023-04-16T02:33:13.455Z,14.57
2023-04-16T02:35:49.433Z,14.65
2023-04-16T02:38:16.090Z,14.75
2023-04-16T02:40:43.793Z,15.13
2023-04-16T02:43:10.982Z,14.95
2023-04-16T02:45:37.696Z,14.73
2023-04-16T02:48:04.649Z,14.95
2023-04-16T02:50:31.324Z,15.80
2023-04-16T02:52:58.106Z,15.10
2023-04-16T02:55:24.877Z,14.90
2023-04-16T02:57:52.916Z,15.13
2023-04-16T03:00:19.811Z,14.63
2023-04-16T03:02:46.633Z,14.98
2023-04-16T03:05:13.280Z,14.70
2023-04-16T03:07:40.748Z,15.20
2023-04-16T03:10:08.094Z,14.60
2023-04-16T03:12:35.995Z,15.35
2023-04-16T03:15:06.631Z,15.00
2023-04-16T03:17:33.288Z,14.68
2023-04-16T03:20:00.105Z,15.23
2023-04-16T03:22:27.070Z,15.80
2023-04-16T03:24:53.762Z,15.65
2023-04-16T03:27:20.449Z,15.82
2023-04-16T03:29:48.112Z,15.55
2023-04-16T03:32:14.820Z,16.20
2023-04-16T03:34:41.854Z,17.27
2023-04-16T03:37:11.877Z,16.25
2023-04-16T03:39:39.015Z,16.73
2023-04-16T03:42:05.839Z,17.45
2023-04-16T03:44:34.222Z,17.40
2023-04-16T03:47:01.566Z,17.63
2023-04-16T03:49:28.595Z,18.05
2023-04-16T03:51:55.957Z,17.13
2023-04-16T03:54:23.066Z,17.67
2023-04-16T03:56:57.627Z,17.45
2023-04-16T03:59:24.411Z,18.55
2023-04-16T04:01:51.284Z,18.00
2023-04-16T04:04:18.229Z,18.00
2023-04-16T04:06:48.151Z,18.13
2023-04-16T04:09:16.303Z,18.70
2023-04-16T04:11:43.131Z,18.40
2023-04-16T04:14:09.839Z,18.45
2023-04-16T04:16:36.522Z,20.25
2023-04-16T04:19:03.333Z,18.60
2023-04-16T04:21:31.661Z,19.35
2023-04-16T04:23:58.536Z,19.45
2023-04-16T04:26:25.525Z,19.77
2023-04-16T04:28:52.213Z,18.90
2023-04-16T04:31:19.081Z,19.13
2023-04-16T04:33:45.872Z,19.77
2023-04-16T04:36:12.469Z,17.98
2023-04-16T04:38:39.456Z,19.17
2023-04-16T04:41:06.619Z,19.58
2023-04-16T04:43:36.295Z,19.35
2023-04-16T04:46:03.160Z,19.23
2023-04-16T04:48:31.408Z,18.42
2023-04-16T04:50:58.009Z,18.83
2023-04-16T04:53:24.649Z,18.88
2023-04-16T04:55:54.051Z,18.77
2023-04-16T04:58:24.082Z,18.67
2023-04-16T05:00:51.131Z,18.13
2023-04-16T05:03:22.011Z,18.25
2023-04-16T05:05:48.692Z,19.08
2023-04-16T05:08:15.660Z,18.80
2023-04-16T05:10:42.337Z,17.95
2023-04-16T05:13:09.050Z,18.58
2023-04-16T05:15:35.740Z,18.70
2023-04-16T05:18:02.475Z,18.00
2023-04-16T05:20:29.143Z,19.80
2023-04-16T05:22:57.561Z,17.77
2023-04-16T05:25:24.194Z,18.73
2023-04-16T05:27:50.913Z,18.27
2023-04-16T05:30:17.652Z,18.75
2023-04-16T05:32:44.453Z,18.25
2023-04-16T05:35:11.244Z,19.00
2023-04-16T05:37:37.868Z,18.38
2023-04-16T05:40:04.834Z,19.05
2023-04-16T05:42:32.190Z,17.75
2023-04-16T05:44:58.808Z,17.70
2023-04-16T05:47:25.466Z,19.17
2023-04-16T05:49:52.059Z,19.63
2023-04-16T05:52:18.793Z,19.02
2023-04-16T05:54:45.424Z,20.58
2023-04-16T05:57:13.701Z,19.45
2023-04-16T05:59:40.432Z,17.95
2023-04-16T06:02:07.297Z,18.48
2023-04-16T06:04:35.720Z,18.05
2023-04-16T06:07:02.374Z,18.90
2023-04-16T06:09:30.026Z,18.73
2023-04-16T06:11:56.737Z,19.90
2023-04-16T06:14:23.409Z,19.17
2023-04-16T06:16:50.037Z,19.27
2023-04-16T06:19:16.644Z,18.75
2023-04-16T06:21:43.328Z,19.75
2023-04-16T06:24:09.933Z,18.67
2023-04-16T06:26:36.600Z,20.05
2023-04-16T06:29:03.199Z,20.73
2023-04-16T06:31:30.428Z,19.95
2023-04-16T06:33:57.108Z,19.90
2023-04-16T06:36:23.696Z,19.50
2023-04-16T06:38:50.309Z,19.05
2023-04-16T06:41:16.937Z,19.63
2023-04-16T06:43:44.096Z,19.70
2023-04-16T06:46:11.158Z,19.77
2023-04-16T06:48:37.762Z,18.67
2023-04-16T06:51:04.581Z,22.33
2023-04-16T06:53:31.372Z,21.20
2023-04-16T06:55:57.974Z,21.15
2023-04-16T06:58:24.652Z,20.15
2023-04-16T07:00:51.300Z,19.52
2023-04-16T07:03:18.000Z,19.05
2023-04-16T07:05:44.694Z,18.42
2023-04-16T07:08:11.550Z,17.88
2023-04-16T07:10:38.409Z,17.73
2023-04-16T07:13:05.081Z,17.67
2023-04-16T07:15:31.789Z,19.15
2023-04-16T07:17:58.466Z,20.30
2023-04-16T07:20:25.293Z,18.85
2023-04-16T07:22:52.034Z,17.42
2023-04-16T07:25:18.716Z,17.00
2023-04-16T07:27:45.397Z,17.00
2023-04-16T07:30:12.070Z,16.77
2023-04-16T07:32:38.726Z,16.92
2023-04-16T07:35:06.110Z,17.42
2023-04-16T07:37:32.852Z,17.17
2023-04-16T07:40:00.764Z,15.85
2023-04-16T07:42:28.154Z,17.33
2023-04-16T07:44:55.413Z,17.10
2023-04-16T07:47:23.251Z,17.15
2023-04-16T07:49:50.678Z,16.95
2023-04-16T07:52:17.409Z,17.48
2023-04-16T07:54:44.103Z,16.80
2023-04-16T07:57:12.201Z,16.55
2023-04-16T07:59:38.855Z,16.55
2023-04-16T08:02:06.290Z,16.67
2023-04-16T08:04:33.468Z,16.92
2023-04-16T08:07:02.801Z,16.17
2023-04-16T08:09:29.499Z,16.63
2023-04-16T08:11:56.353Z,15.40
2023-04-16T08:14:23.199Z,17.33
2023-04-16T08:16:49.914Z,16.58
2023-04-16T08:19:16.734Z,16.35
2023-04-16T08:21:43.705Z,16.20
2023-04-16T08:24:10.960Z,16.50
2023-04-16T08:26:37.605Z,16.70
2023-04-16T08:29:04.278Z,16.55
2023-04-16T08:31:31.276Z,16.27
2023-04-16T08:33:58.035Z,16.40
2023-04-16T08:36:24.648Z,16.20
2023-04-16T08:38:52.289Z,17.27
2023-04-16T08:41:21.744Z,17.70
2023-04-16T08:43:50.576Z,17.20
2023-04-16T08:46:17.790Z,16.50
2023-04-16T08:48:49.499Z,16.05
2023-04-16T08:51:19.341Z,17.27
2023-04-16T08:53:52.711Z,16.02
2023-04-16T08:56:23.826Z,16.10
2023-04-16T08:58:53.786Z,15.95
2023-04-16T09:01:21.059Z,15.35
2023-04-16T09:03:48.594Z,15.23
2023-04-16T09:06:16.574Z,14.93
2023-04-16T09:08:46.577Z,18.67
2023-04-16T09:11:19.699Z,15.90
2023-04-16T09:13:47.365Z,15.63
2023-04-16T09:16:15.343Z,15.30
2023-04-16T09:18:42.208Z,15.68
2023-04-16T09:21:12.466Z,15.48
2023-04-16T09:23:40.110Z,15.68
2023-04-16T09:26:06.746Z,17.63
2023-04-16T09:28:47.091Z,15.70
2023-04-16T09:31:15.836Z,15.25
2023-04-16T09:33:43.925Z,15.80
2023-04-16T09:36:11.071Z,14.88
2023-04-16T09:38:52.194Z,15.45
2023-04-16T09:41:19.718Z,14.40
2023-04-16T09:43:54.446Z,14.70
2023-04-16T09:46:21.161Z,14.90
2023-04-16T09:48:47.936Z,14.23
2023-04-16T09:51:14.588Z,14.88
2023-04-16T09:53:41.218Z,15.30
2023-04-16T09:56:09.022Z,14.65
2023-04-16T09:58:37.416Z,14.98
2023-04-16T10:01:12.232Z,14.20
2023-04-16T10:03:40.556Z,15.05
2023-04-16T10:06:20.612Z,14.77
2023-04-16T10:08:50.582Z,15.68
2023-04-16T10:11:18.220Z,15.23
2023-04-16T10:13:45.110Z,14.90
2023-04-16T10:16:12.254Z,14.00
2023-04-16T10:18:41.152Z,14.35
2023-04-16T10:21:11.603Z,13.95
2023-04-16T10:23:42.363Z,13.90
2023-04-16T10:26:09.566Z,15.07
2023-04-16T10:28:37.289Z,14.63
2023-04-16T10:31:07.273Z,15.88
2023-04-16T10:33:36.413Z,15.20
2023-04-16T10:36:24.440Z,14.35
2023-04-16T10:38:54.719Z,14.88
2023-04-16T10:41:21.423Z,14.60
2023-04-16T10:43:49.884Z,14.48
2023-04-16T10:46:32.021Z,14.30
2023-04-16T10:49:19.616Z,14.90
2023-04-16T10:51:56.507Z,14.52
2023-04-16T10:54:28.221Z,14.80
2023-04-16T10:56:58.259Z,14.25
2023-04-16T10:59:25.785Z,14.85
2023-04-16T11:01:58.519Z,14.23
2023-04-16T11:04:25.432Z,14.73
2023-04-16T11:07:14.019Z,14.77
2023-04-16T11:09:52.903Z,13.07
2023-04-16T11:12:24.299Z,13.23
2023-04-16T11:15:11.566Z,12.52
2023-04-16T11:17:41.094Z,12.65
2023-04-16T11:20:19.196Z,12.80
2023-04-16T11:22:51.125Z,12.38
2023-04-16T11:25:25.855Z,12.30
2023-04-16T11:27:53.283Z,11.93
2023-04-16T11:30:31.925Z,12.18
2023-04-16T11:32:58.682Z,12.90
2023-04-16T11:35:25.732Z,12.38
2023-04-16T11:37:57.017Z,12.80
2023-04-16T11:40:24.612Z,13.23
2023-04-16T11:42:51.267Z,13.40
2023-04-16T11:45:19.435Z,12.77
2023-04-16T11:47:56.846Z,13.25
2023-04-16T11:50:28.302Z,11.40
2023-04-16T11:52:57.078Z,12.48
2023-04-16T11:55:24.093Z,12.82
2023-04-16T11:57:51.578Z,13.07
2023-04-16T12:00:19.041Z,12.30
2023-04-16T12:02:52.241Z,12.68
2023-04-16T12:05:37.231Z,13.52
2023-04-16T12:08:06.279Z,12.20
2023-04-16T12:10:35.321Z,11.98
2023-04-16T12:13:22.759Z,12.32
2023-04-16T12:15:51.997Z,13.10
2023-04-16T12:18:21.359Z,12.68
2023-04-16T12:20:48.265Z,12.85
2023-04-16T12:23:29.603Z,14.00
2023-04-16T12:26:02.486Z,13.70
2023-04-16T12:28:34.669Z,13.70
2023-04-16T12:31:02.938Z,13.85
2023-04-16T12:33:29.818Z,13.85
2023-04-16T12:35:56.670Z,13.90
2023-04-16T12:38:24.688Z,15.15
2023-04-16T12:40:51.974Z,14.48
2023-04-16T12:43:19.786Z,14.50
2023-04-16T12:45:46.641Z,14.73
2023-04-16T12:48:13.374Z,13.93
2023-04-16T12:50:40.202Z,13.90
2023-04-16T12:53:07.075Z,13.90
2023-04-16T12:55:33.769Z,13.70
2023-04-16T12:58:01.011Z,14.20
2023-04-16T13:00:27.863Z,14.38
2023-04-16T13:02:54.775Z,13.32
2023-04-16T13:05:21.510Z,13.88
2023-04-16T13:07:48.169Z,13.18
2023-04-16T13:10:14.932Z,13.30
2023-04-16T13:12:41.596Z,13.65
2023-04-16T13:15:09.312Z,13.45
2023-04-16T13:17:36.017Z,13.27
2023-04-16T13:20:03.160Z,14.38
2023-04-16T13:22:30.052Z,13.50
2023-04-16T13:24:57.062Z,13.85
2023-04-16T13:27:23.894Z,14.35
2023-04-16T13:29:50.598Z,13.75
2023-04-16T13:32:18.828Z,13.65
2023-04-16T13:34:45.586Z,14.02
2023-04-16T13:37:12.223Z,13.77
2023-04-16T13:39:38.992Z,13.32
2023-04-16T13:42:05.874Z,15.80
2023-04-16T13:44:32.509Z,14.77
2023-04-16T13:46:59.259Z,15.00
2023-04-16T13:49:26.015Z,14.13
2023-04-16T13:51:54.086Z,13.13
2023-04-16T13:54:20.771Z,14.45
2023-04-16T13:56:47.468Z,15.60
2023-04-16T13:59:15.667Z,14.70
2023-04-16T14:01:42.495Z,14.50
2023-04-16T14:04:09.477Z,15.60
2023-04-16T14:06:36.339Z,15.07
2023-04-16T14:09:03.075Z,15.43
2023-04-16T14:11:29.969Z,14.05
2023-04-16T14:13:56.639Z,14.38
2023-04-16T14:16:23.399Z,14.90
2023-04-16T14:18:51.791Z,15.75
2023-04-16T14:21:18.695Z,15.45
2023-04-16T14:23:45.431Z,16.80
2023-04-16T14:26:12.079Z,15.70
2023-04-16T14:28:40.028Z,17.08
2023-04-16T14:31:06.736Z,15.35
2023-04-16T14:33:33.464Z,16.05
2023-04-16T14:36:02.572Z,16.08
2023-04-16T14:38:30.010Z,15.88
2023-04-16T14:40:56.652Z,15.20
2023-04-16T14:43:23.353Z,17.33
2023-04-16T14:45:50.004Z,16.50
2023-04-16T14:48:16.705Z,16.98
2023-04-16T14:50:44.170Z,16.23
2023-04-16T14:53:11.961Z,16.23
2023-04-16T14:55:38.700Z,16.25
2023-04-16T14:58:05.602Z,15.93
2023-04-16T15:00:34.704Z,17.65
2023-04-16T15:03:01.647Z,16.92
2023-04-16T15:05:29.702Z,16.45
2023-04-16T15:07:56.660Z,16.63
2023-04-16T15:10:23.273Z,16.77
2023-04-16T15:12:49.877Z,17.33
2023-04-16T15:15:16.690Z,14.48
2023-04-16T15:17:43.855Z,15.48
2023-04-16T15:20:11.135Z,15.45
2023-04-16T15:22:38.328Z,15.40
2023-04-16T15:25:06.324Z,16.73
2023-04-16T15:27:32.954Z,16.92
2023-04-16T15:29:59.728Z,16.30
2023-04-16T15:32:26.422Z,16.33
2023-04-16T15:34:53.060Z,17.45
2023-04-16T15:37:19.715Z,16.20
2023-04-16T15:39:46.470Z,16.30
2023-04-16T15:42:13.288Z,16.60
2023-04-16T15:44:40.506Z,15.48
2023-04-16T15:47:08.500Z,16.30
2023-04-16T15:49:35.551Z,16.92
2023-04-16T15:52:02.501Z,17.45
2023-04-16T15:54:30.671Z,17.90
2023-04-16T15:56:58.733Z,17.35
2023-04-16T15:59:26.781Z,16.73
2023-04-16T16:01:53.541Z,17.10
2023-04-16T16:04:22.756Z,16.63
2023-04-16T16:06:50.429Z,16.85
2023-04-16T16:09:17.278Z,16.90
2023-04-16T16:11:44.084Z,17.02
2023-04-16T16:14:12.462Z,17.27
2023-04-16T16:16:39.860Z,18.27
2023-04-16T16:19:06.906Z,16.65
2023-04-16T16:21:33.517Z,15.90
2023-04-16T16:24:00.132Z,15.30
2023-04-16T16:26:27.184Z,17.40
2023-04-16T16:28:53.803Z,16.50
2023-04-16T16:31:20.896Z,15.40
2023-04-16T16:33:47.721Z,16.75
2023-04-16T16:36:14.766Z,16.17
2023-04-16T16:38:42.525Z,16.58
2023-04-16T16:41:09.228Z,16.25
2023-04-16T16:43:36.807Z,16.75
2023-04-16T16:46:03.716Z,14.73
2023-04-16T16:48:30.426Z,16.15
2023-04-16T16:50:57.258Z,15.50
2023-04-16T16:53:23.944Z,16.50
2023-04-16T16:55:50.681Z,15.32
2023-04-16T16:58:17.293Z,15.43
2023-04-16T17:00:44.065Z,16.33
2023-04-16T17:03:11.050Z,15.30
2023-04-16T17:05:38.070Z,15.77
2023-04-16T17:08:04.940Z,16.10
2023-04-16T17:10:31.652Z,15.23
2023-04-16T17:12:58.291Z,16.17
2023-04-16T17:15:25.035Z,16.13
2023-04-16T17:17:51.812Z,15.77
2023-04-16T17:20:18.595Z,16.33
2023-04-16T17:22:45.248Z,16.20
2023-04-16T17:25:12.088Z,16.00
2023-04-16T17:27:41.672Z,16.42
2023-04-16T17:30:08.718Z,15.98
2023-04-16T17:32:35.915Z,15.80
2023-04-16T17:35:04.323Z,16.25
2023-04-16T17:37:31.413Z,15.23
2023-04-16T17:39:58.117Z,16.35
2023-04-16T17:42:24.875Z,16.63
2023-04-16T17:44:51.892Z,16.08
2023-04-16T17:47:18.652Z,15.93
2023-04-16T17:49:45.414Z,16.45
2023-04-16T17:52:12.011Z,15.43
2023-04-16T17:54:38.656Z,16.48
2023-04-16T17:57:05.301Z,16.40
2023-04-16T17:59:31.918Z,15.80
2023-04-16T18:01:58.604Z,16.27
2023-04-16T18:04:25.515Z,16.55
2023-04-16T18:06:52.456Z,16.58
2023-04-16T18:09:19.579Z,15.70
2023-04-16T18:11:47.367Z,15.77
2023-04-16T18:14:16.860Z,16.05
2023-04-16T18:16:43.730Z,17.35
2023-04-16T18:19:10.363Z,17.17
2023-04-16T18:21:37.014Z,16.13
2023-04-16T18:24:03.861Z,17.80
2023-04-16T18:26:31.146Z,15.43
2023-04-16T18:28:59.978Z,15.38
2023-04-16T18:31:27.186Z,15.50
2023-04-16T18:33:57.860Z,14.65
2023-04-16T18:36:26.653Z,14.68
2023-04-16T18:39:01.546Z,14.10
2023-04-16T18:41:41.703Z,14.25
2023-04-16T18:44:10.647Z,14.57
2023-04-16T18:46:37.404Z,15.25
2023-04-16T18:49:04.089Z,14.18
2023-04-16T18:51:30.754Z,14.35
2023-04-16T18:53:57.381Z,14.35
2023-04-16T18:56:24.208Z,14.68
2023-04-16T18:58:50.959Z,14.20
2023-04-16T19:01:17.913Z,14.70
2023-04-16T19:03:45.487Z,14.10
2023-04-16T19:06:12.196Z,15.05
2023-04-16T19:08:38.877Z,14.75
2023-04-16T19:11:05.508Z,14.65
2023-04-16T19:13:32.344Z,15.15
2023-04-16T19:16:00.385Z,15.57
2023-04-16T19:18:27.195Z,14.07
2023-04-16T19:21:00.622Z,14.48
2023-04-16T19:23:29.203Z,15.02
2023-04-16T19:25:56.966Z,15.77
2023-04-16T19:28:25.034Z,15.02
2023-04-16T19:30:52.822Z,20.38
2023-04-16T19:33:19.742Z,17.00
2023-04-16T19:35:47.313Z,16.05
2023-04-16T19:38:14.137Z,15.48
2023-04-16T19:40:43.906Z,15.02
2023-04-16T19:43:10.686Z,16.13
2023-04-16T19:45:42.979Z,18.88
2023-04-16T19:48:09.881Z,17.33
2023-04-16T19:50:40.142Z,15.70
2023-04-16T19:53:07.578Z,15.07
2023-04-16T19:55:34.435Z,16.02
2023-04-16T19:58:06.006Z,15.15
2023-04-16T20:00:33.941Z,15.80
2023-04-16T20:03:00.859Z,15.48
2023-04-16T20:05:28.053Z,15.25
2023-04-16T20:07:55.607Z,15.35
2023-04-16T20:10:23.070Z,15.88
2023-04-16T20:12:50.832Z,15.90
2023-04-16T20:15:18.321Z,15.43
2023-04-16T20:17:45.043Z,15.50
2023-04-16T20:20:12.017Z,15.07
2023-04-16T20:22:39.632Z,15.32
2023-04-16T20:25:07.587Z,15.30
2023-04-16T20:27:35.074Z,15.95
2023-04-16T20:30:02.639Z,14.85
2023-04-16T20:32:29.293Z,15.38
2023-04-16T20:34:56.381Z,15.65
2023-04-16T20:37:23.078Z,15.48
2023-04-16T20:39:54.043Z,15.38
2023-04-16T20:42:22.130Z,15.63
2023-04-16T20:44:55.766Z,15.88
2023-04-16T20:47:22.997Z,15.32
2023-04-16T20:49:49.901Z,15.30
2023-04-16T20:52:16.830Z,16.20
2023-04-16T20:54:43.665Z,15.73
2023-04-16T20:57:10.248Z,15.88
2023-04-16T20:59:37.037Z,16.00
2023-04-16T21:02:03.787Z,15.35
2023-04-16T21:04:30.720Z,15.73
2023-04-16T21:06:57.565Z,15.55
2023-04-16T21:09:24.321Z,16.15
2023-04-16T21:11:51.073Z,15.70
2023-04-16T21:14:17.709Z,15.85
2023-04-16T21:16:44.340Z,15.75
2023-04-16T21:19:11.369Z,15.05
2023-04-16T21:21:38.953Z,15.70
2023-04-16T21:24:06.054Z,15.35
2023-04-16T21:26:32.682Z,15.18
2023-04-16T21:28:59.324Z,15.75
2023-04-16T21:31:26.176Z,16.55
2023-04-16T21:33:52.909Z,16.50
2023-04-16T21:36:19.726Z,16.00
2023-04-16T21:38:46.395Z,15.38
2023-04-16T21:41:13.024Z,16.00
2023-04-16T21:43:39.665Z,15.80
2023-04-16T21:46:06.349Z,16.30
2023-04-16T21:48:33.015Z,16.58
2023-04-16T21:51:06.331Z,16.17
2023-04-16T21:53:33.417Z,16.60
2023-04-16T21:56:00.297Z,16.45
2023-04-16T21:58:27.219Z,15.93
2023-04-16T22:00:54.150Z,16.60
2023-04-16T22:03:30.470Z,20.15
2023-04-16T22:06:01.573Z,17.75
2023-04-16T22:08:29.149Z,16.08
2023-04-16T22:11:01.923Z,16.50
2023-04-16T22:13:32.150Z,16.38
2023-04-16T22:16:02.409Z,16.30
2023-04-16T22:18:32.865Z,15.70
2023-04-16T22:20:59.991Z,16.58
2023-04-16T22:23:26.655Z,16.98
2023-04-16T22:25:55.450Z,16.83
2023-04-16T22:28:22.485Z,16.48
2023-04-16T22:30:49.073Z,17.10
2023-04-16T22:33:15.918Z,15.48
2023-04-16T22:35:42.704Z,15.20
2023-04-16T22:38:10.180Z,15.68
2023-04-16T22:40:36.876Z,15.25
2023-04-16T22:43:03.592Z,15.45
2023-04-16T22:45:30.367Z,14.95
2023-04-16T22:47:57.155Z,15.80
2023-04-16T22:50:23.773Z,15.15
2023-04-16T22:52:50.383Z,17.08
2023-04-16T22:55:17.070Z,16.17
2023-04-16T22:57:43.739Z,16.20
2023-04-16T23:00:15.812Z,15.93
2023-04-16T23:02:43.074Z,15.88
2023-04-16T23:05:10.775Z,15.57
2023-04-16T23:07:37.663Z,15.77
2023-04-16T23:10:04.746Z,16.13
2023-04-16T23:12:31.361Z,16.75
2023-04-16T23:14:58.253Z,16.77
2023-04-16T23:17:25.016Z,17.27
2023-04-16T23:19:51.688Z,16.80
2023-04-16T23:22:18.376Z,16.73
2023-04-16T23:24:45.037Z,16.67
2023-04-16T23:27:11.706Z,16.30
2023-04-16T23:29:38.383Z,16.27
2023-04-16T23:32:05.131Z,16.23
2023-04-16T23:34:31.737Z,15.43
2023-04-16T23:36:58.483Z,16.02
2023-04-16T23:39:25.355Z,16.35
2023-04-16T23:41:51.965Z,16.25
2023-04-16T23:44:18.624Z,16.33
2023-04-16T23:46:45.470Z,16.80
2023-04-16T23:49:12.268Z,16.25
2023-04-16T23:51:38.964Z,16.58
2023-04-16T23:54:06.064Z,16.38
2023-04-16T23:56:32.755Z,16.30
2023-04-16T23:58:59.444Z,16.85
